Time;durP1;ratioP1;P1;durP2;ratioP2;P2;SDS_P1;SDS_P2;PMS_P1;PMS_P2;Temp;Humidity;BMP_temperature;BMP_pressure;BME280_temperature;BME280_humidity;BME280_pressure;Samples;Min_cycle;Max_cycle;Signal;HPM_P1;HPM_P2
2023/06/13 00:00:14;;;;;;;7.70;2.90;;;19.70;74.40;;;;;;5060509;28;20463;-66
2023/06/13 00:02:41;;;;;;;2.77;2.33;;;;;;;;;;5060249;28;20858;-65
2023/06/13 00:05:17;;;;;;;7.43;2.53;;;;;;;;;;5060497;28;20954;-65
2023/06/13 00:07:45;;;;;;;3.30;2.40;;;19.80;72.60;;;;;;5060012;28;20467;-65
2023/06/13 00:10:13;;;;;;;4.30;2.83;;;;;;;;;;5060152;28;20525;-66
2023/06/13 00:12:41;;;;;;;3.70;2.53;;;;;;;;;;5079939;28;20431;-66
2023/06/13 00:15:11;;;;;;;2.63;2.10;;;19.90;76.10;;;;;;5092143;28;20466;-65
2023/06/13 00:17:40;;;;;;;5.10;2.63;;;19.70;75.80;;;;;;5100196;28;20581;-66
2023/06/13 00:20:08;;;;;;;3.67;1.97;;;17.50;74.30;;;;;;5099052;28;20458;-66
2023/06/13 00:22:36;;;;;;;3.87;2.77;;;;;;;;;;5099970;28;20432;-65
2023/06/13 00:25:04;;;;;;;4.43;3.10;;;;;;;;;;5099486;28;20860;-65
2023/06/13 00:27:32;;;;;;;4.30;2.57;;;19.20;67.80;;;;;;5099606;28;20465;-66
2023/06/13 00:30:01;;;;;;;4.90;2.63;;;;;;;;;;5099103;28;20522;-64
2023/06/13 00:32:28;;;;;;;6.47;2.43;;;;;;;;;;5082202;28;20541;-64
2023/06/13 00:34:57;;;;;;;3.17;2.50;;;;;;;;;;5062002;28;20436;-65
2023/06/13 00:37:29;;;;;;;5.83;2.67;;;;;;;;;;5060231;28;20840;-65
2023/06/13 00:39:57;;;;;;;15.23;3.60;;;19.60;69.10;;;;;;5059082;28;20494;-66
2023/06/13 00:42:24;;;;;;;4.97;2.67;;;;;;;;;;5059993;28;20435;-65
2023/06/13 00:44:51;;;;;;;4.30;2.53;;;;;;;;;;5058797;28;20852;-64
2023/06/13 00:47:19;;;;;;;6.30;3.20;;;;;;;;;;5058914;28;20471;-65
2023/06/13 00:49:46;;;;;;;3.80;2.30;;;;;;;;;;5059196;28;20439;-65
2023/06/13 00:52:16;;;;;;;3.87;3.40;;;;;;;;;;5058661;28;20508;-65
2023/06/13 00:54:44;;;;;;;3.97;2.63;;;;;;;;;;5059584;28;20475;-66
2023/06/13 00:57:12;;;;;;;3.10;2.63;;;;;;;;;;5061446;28;20471;-65
2023/06/13 00:59:41;;;;;;;3.53;2.60;;;18.90;69.80;;;;;;5058533;28;20458;-66
2023/06/13 01:02:08;;;;;;;3.77;2.83;;;;;;;;;;5065074;28;20446;-66
2023/06/13 01:04:37;;;;;;;3.43;2.40;;;;;;;;;;5079358;28;20434;-65
2023/06/13 01:07:05;;;;;;;4.50;3.27;;;;;;;;;;5065168;28;20513;-66
2023/06/13 01:09:34;;;;;;;5.77;2.77;;;;;;;;;;5071172;28;20456;-66
2023/06/13 01:12:05;;;;;;;7.40;3.10;;;;;;;;;;5080697;28;20485;-67
2023/06/13 01:14:41;;;;;;;4.33;3.13;;;18.80;80.20;;;;;;5088708;28;20473;-66
2023/06/13 01:17:20;;;;;;;5.03;3.07;;;18.80;78.90;;;;;;5100399;28;20461;-66
2023/06/13 01:19:53;;;;;;;5.10;2.90;;;18.50;76.90;;;;;;5100945;28;20465;-66
2023/06/13 01:22:24;;;;;;;3.60;2.73;;;;;;;;;;5100458;28;20520;-65
2023/06/13 01:25:08;;;;;;;2.47;2.27;;;18.80;79.40;;;;;;5100071;28;20468;-67
2023/06/13 01:27:38;;;;;;;8.33;3.40;;;;;;;;;;5100899;28;20465;-66
2023/06/13 01:30:09;;;;;;;6.07;3.17;;;18.60;80.60;;;;;;5099681;28;20559;-65
2023/06/13 01:32:39;;;;;;;4.67;2.83;;;18.50;72.70;;;;;;5100198;28;20699;-65
2023/06/13 01:35:07;;;;;;;6.03;3.50;;;;;;;;;;5101003;28;20449;-66
2023/06/13 01:37:36;;;;;;;7.00;4.57;;;;;;;;;;5100796;28;20999;-66
2023/06/13 01:40:04;;;;;;;6.60;3.33;;;;;;;;;;5099031;28;20465;-66
2023/06/13 01:42:32;;;;;;;4.97;2.30;;;;;;;;;;5100091;28;20468;-66
2023/06/13 01:45:01;;;;;;;5.10;2.77;;;;;;;;;;5101204;28;20461;-67
2023/06/13 01:47:34;;;;;;;3.57;2.57;;;18.40;81.00;;;;;;5100593;28;20449;-65
2023/06/13 01:50:05;;;;;;;4.30;3.50;;;;;;;;;;5101381;28;20472;-66
2023/06/13 01:52:36;;;;;;;8.00;2.60;;;;;;;;;;5102425;28;20470;-67
2023/06/13 01:55:15;;;;;;;4.13;3.00;;;18.30;81.70;;;;;;5105257;28;20426;-66
2023/06/13 01:57:50;;;;;;;4.50;2.57;;;18.30;74.60;;;;;;5105379;28;20516;-66
2023/06/13 02:00:20;;;;;;;3.67;2.27;;;;;;;;;;5105585;28;20469;-65
2023/06/13 02:02:51;;;;;;;2.60;2.30;;;18.10;74.70;;;;;;5107404;28;20421;-65
2023/06/13 02:05:20;;;;;;;5.90;3.30;;;;;;;;;;5106876;28;20508;-64
2023/06/13 02:07:47;;;;;;;5.73;3.13;;;;;;;;;;5106222;28;20460;-63
2023/06/13 02:10:15;;;;;;;4.50;2.67;;;18.10;75.00;;;;;;5106032;28;20469;-65
2023/06/13 02:12:42;;;;;;;2.63;2.43;;;;;;;;;;5105137;28;20441;-65
2023/06/13 02:15:11;;;;;;;3.07;2.50;;;18.20;75.40;;;;;;5104316;28;20441;-65
2023/06/13 02:17:39;;;;;;;6.90;2.90;;;18.30;83.10;;;;;;5105162;28;20469;-65
2023/06/13 02:20:13;;;;;;;3.20;2.60;;;18.00;82.60;;;;;;5104089;28;20453;-65
2023/06/13 02:22:41;;;;;;;5.13;2.50;;;18.00;75.40;;;;;;5104670;28;20534;-65
2023/06/13 02:25:09;;;;;;;7.30;3.03;;;18.00;81.10;;;;;;5105416;28;20426;-64
2023/06/13 02:27:38;;;;;;;12.20;3.50;;;;;;;;;;5104628;28;20460;-65
2023/06/13 02:30:07;;;;;;;4.57;3.07;;;17.90;84.40;;;;;;5104798;28;20462;-66
2023/06/13 02:32:36;;;;;;;6.43;2.60;;;;;;;;;;5104371;28;20428;-65
2023/06/13 02:35:05;;;;;;;4.30;2.97;;;17.80;83.90;;;;;;5104463;28;20941;-64
2023/06/13 02:37:32;;;;;;;3.50;2.37;;;;;;;;;;5104690;28;20461;-66
2023/06/13 02:40:00;;;;;;;4.57;3.00;;;;;;;;;;5104014;28;20465;-65
2023/06/13 02:42:28;;;;;;;2.90;2.60;;;18.10;85.50;;;;;;5105203;28;20500;-65
2023/06/13 02:44:55;;;;;;;6.60;3.00;;;;;;;;;;5103856;28;20449;-65
2023/06/13 02:47:23;;;;;;;6.73;3.63;;;;;;;;;;5103797;28;20469;-65
2023/06/13 02:49:50;;;;;;;11.87;3.23;;;;;;;;;;5070624;28;20471;-64
2023/06/13 02:52:21;;;;;;;4.27;2.43;;;;;;;;;;5082053;28;20430;-65
2023/06/13 02:54:49;;;;;;;5.03;4.10;;;;;;;;;;5084015;28;20462;-66
2023/06/13 02:57:16;;;;;;;4.43;2.60;;;;;;;;;;5083531;28;20470;-66
2023/06/13 02:59:44;;;;;;;4.63;3.60;;;;;;;;;;5083533;28;20426;-65
2023/06/13 03:02:11;;;;;;;9.43;3.50;;;;;;;;;;5083750;28;20423;-65
2023/06/13 03:04:38;;;;;;;3.20;2.80;;;;;;;;;;5082370;28;20423;-64
2023/06/13 03:07:06;;;;;;;3.83;2.50;;;;;;;;;;5082951;28;20466;-64
2023/06/13 03:09:35;;;;;;;4.73;2.53;;;;;;;;;;5082611;28;20434;-65
2023/06/13 03:12:03;;;;;;;4.30;3.13;;;;;;;;;;5083015;28;20540;-66
2023/06/13 03:14:31;;;;;;;3.60;3.20;;;;;;;;;;5090497;28;20493;-65
2023/06/13 03:16:59;;;;;;;5.30;2.67;;;;;;;;;;5103371;28;20430;-65
2023/06/13 03:19:26;;;;;;;5.10;3.03;;;;;;;;;;5102816;28;20465;-65
2023/06/13 03:21:54;;;;;;;7.13;2.97;;;17.30;81.00;;;;;;5103049;28;20548;-66
2023/06/13 03:24:22;;;;;;;6.23;3.63;;;;;;;;;;5102428;28;20434;-65
2023/06/13 03:26:51;;;;;;;5.43;3.10;;;;;;;;;;5101686;28;20426;-64
2023/06/13 03:29:18;;;;;;;2.87;2.67;;;;;;;;;;5101575;28;20426;-65
2023/06/13 03:31:46;;;;;;;6.63;3.60;;;;;;;;;;5102376;28;20469;-65
2023/06/13 03:34:14;;;;;;;6.33;2.90;;;17.10;81.80;;;;;;5096121;28;20478;-68
2023/06/13 03:36:43;;;;;;;2.70;2.50;;;;;;;;;;5079889;28;20879;-64
2023/06/13 03:39:11;;;;;;;8.10;3.40;;;;;;;;;;5072859;28;20442;-65
2023/06/13 03:41:39;;;;;;;9.60;2.90;;;;;;;;;;5081479;28;21178;-65
2023/06/13 03:44:07;;;;;;;3.60;2.50;;;17.10;90.00;;;;;;5081077;28;20717;-65
2023/06/13 03:46:36;;;;;;;3.93;2.63;;;;;;;;;;5079201;28;20478;-64
2023/06/13 03:49:03;;;;;;;5.03;3.27;;;;;;;;;;5076730;28;20475;-65
2023/06/13 03:51:31;;;;;;;3.67;2.73;;;;;;;;;;5079491;28;20478;-65
2023/06/13 03:54:00;;;;;;;5.70;2.50;;;;;;;;;;5078409;28;20446;-65
2023/06/13 03:56:27;;;;;;;5.77;3.67;;;;;;;;;;5073980;28;20466;-66
2023/06/13 03:58:54;;;;;;;6.50;2.93;;;;;;;;;;5069339;28;20527;-66
2023/06/13 04:01:24;;;;;;;4.50;3.27;;;;;;;;;;5077233;28;20933;-67
2023/06/13 04:03:51;;;;;;;4.40;3.33;;;;;;;;;;5085133;28;20926;-66
2023/06/13 04:06:18;;;;;;;4.13;2.57;;;;;;;;;;5086883;28;20451;-64
2023/06/13 04:08:46;;;;;;;7.03;2.83;;;;;;;;;;5091755;28;20502;-65
2023/06/13 04:11:13;;;;;;;5.13;2.43;;;;;;;;;;5080741;28;20969;-63
2023/06/13 04:13:43;;;;;;;2.93;2.57;;;;;;;;;;5064925;28;20450;-65
2023/06/13 04:16:11;;;;;;;5.57;3.23;;;17.10;83.20;;;;;;5078823;28;20777;-64
2023/06/13 04:18:40;;;;;;;3.23;2.43;;;;;;;;;;5069324;28;20502;-65
2023/06/13 04:21:08;;;;;;;3.10;2.90;;;;;;;;;;5083906;28;20466;-65
2023/06/13 04:23:38;;;;;;;5.97;2.60;;;;;;;;;;5087992;28;20477;-65
2023/06/13 04:26:05;;;;;;;6.00;2.90;;;;;;;;;;5086106;28;20511;-64
2023/06/13 04:28:33;;;;;;;4.83;3.10;;;;;;;;;;5090251;28;20469;-64
2023/06/13 04:31:03;;;;;;;7.50;3.10;;;;;;;;;;5091530;28;20493;-65
2023/06/13 04:33:30;;;;;;;6.03;2.73;;;17.60;88.40;;;;;;5090982;28;20500;-65
2023/06/13 04:36:03;;;;;;;4.83;2.87;;;;;;;;;;5085051;28;20465;-65
2023/06/13 04:38:34;;;;;;;6.53;3.20;;;17.80;87.80;;;;;;5090593;28;20472;-65
2023/06/13 04:41:01;;;;;;;3.63;2.80;;;;;;;;;;5078850;28;21120;-64
2023/06/13 04:43:31;;;;;;;4.23;2.83;;;18.00;80.80;;;;;;5072917;28;21009;-65
2023/06/13 04:46:03;;;;;;;5.60;3.60;;;;;;;;;;5081279;28;20534;-64
2023/06/13 04:48:30;;;;;;;3.27;2.80;;;;;;;;;;5077994;28;20469;-65
2023/06/13 04:51:01;;;;;;;5.90;2.90;;;18.10;89.20;;;;;;5077809;28;20501;-66
2023/06/13 04:53:29;;;;;;;3.83;3.37;;;;;;;;;;5085862;28;20476;-65
2023/06/13 04:55:57;;;;;;;4.30;3.10;;;;;;;;;;5090233;28;20438;-65
2023/06/13 04:58:24;;;;;;;5.03;3.13;;;;;;;;;;5090686;28;20488;-65
2023/06/13 05:00:52;;;;;;;4.13;3.10;;;;;;;;;;5092154;28;20483;-65
2023/06/13 05:03:20;;;;;;;4.30;2.70;;;;;;;;;;5091696;28;20459;-64
2023/06/13 05:05:48;;;;;;;5.70;3.90;;;;;;;;;;5084629;28;20462;-66
2023/06/13 05:08:19;;;;;;;8.20;2.90;;;;;;;;;;5086598;28;20530;-66
2023/06/13 05:10:47;;;;;;;11.13;3.50;;;;;;;;;;5080768;28;20462;-65
2023/06/13 05:13:14;;;;;;;7.30;3.30;;;;;;;;;;5086781;28;20430;-65
2023/06/13 05:15:45;;;;;;;7.07;3.17;;;;;;;;;;5087462;28;20911;-65
2023/06/13 05:18:13;;;;;;;7.67;3.50;;;18.50;86.50;;;;;;5082897;28;20462;-65
2023/06/13 05:20:41;;;;;;;4.30;3.37;;;;;;;;;;5066804;28;20548;-66
2023/06/13 05:23:13;;;;;;;12.90;4.50;;;;;;;;;;5080445;28;20465;-66
2023/06/13 05:25:42;;;;;;;6.50;3.30;;;;;;;;;;5084997;28;20467;-65
2023/06/13 05:28:09;;;;;;;6.50;3.30;;;;;;;;;;5082203;28;20537;-65
2023/06/13 05:30:38;;;;;;;4.50;3.33;;;;;;;;;;5069736;28;20479;-67
2023/06/13 05:33:06;;;;;;;4.20;3.43;;;;;;;;;;5079488;28;20504;-68
2023/06/13 05:35:33;;;;;;;5.93;3.90;;;;;;;;;;5077473;28;20443;-67
2023/06/13 05:38:02;;;;;;;8.40;3.97;;;;;;;;;;5077572;28;20499;-68
2023/06/13 05:40:29;;;;;;;11.53;3.60;;;;;;;;;;5063805;28;20474;-67
2023/06/13 05:42:58;;;;;;;7.50;3.47;;;;;;;;;;5068212;28;20969;-67
2023/06/13 05:45:25;;;;;;;7.10;4.07;;;18.70;84.40;;;;;;5094657;28;20477;-66
2023/06/13 05:47:52;;;;;;;7.00;3.50;;;;;;;;;;5100452;28;20523;-67
2023/06/13 05:50:20;;;;;;;9.67;3.57;;;;;;;;;;5084197;28;20539;-67
2023/06/13 05:52:47;;;;;;;3.97;2.93;;;;;;;;;;5078642;28;20535;-67
2023/06/13 05:55:16;;;;;;;9.23;3.70;;;;;;;;;;5079257;28;20891;-66
2023/06/13 05:57:44;;;;;;;10.10;5.20;;;19.30;87.30;;;;;;5063498;28;20463;-66
2023/06/13 06:00:14;;;;;;;6.70;4.37;;;19.20;86.00;;;;;;5072028;28;20481;-67
2023/06/13 06:02:42;;;;;;;10.27;3.50;;;19.60;89.10;;;;;;5088843;28;20449;-67
2023/06/13 06:05:13;;;;;;;10.80;4.00;;;19.30;77.20;;;;;;5087478;28;20450;-67
2023/06/13 06:07:40;;;;;;;5.50;3.20;;;;;;;;;;5082928;28;20454;-66
2023/06/13 06:10:09;;;;;;;7.93;3.50;;;19.60;86.00;;;;;;5083644;28;20516;-65
2023/06/13 06:12:36;;;;;;;9.87;3.17;;;;;;;;;;5086717;28;20450;-67
2023/06/13 06:15:04;;;;;;;8.00;3.80;;;;;;;;;;5086923;28;20501;-70
2023/06/13 06:17:33;;;;;;;5.00;3.20;;;;;;;;;;5074258;28;20547;-73
2023/06/13 06:20:03;;;;;;;7.70;3.17;;;;;;;;;;5080083;28;21004;-70
2023/06/13 06:22:36;;;;;;;5.77;4.23;;;19.80;83.50;;;;;;5079433;28;20525;-73
2023/06/13 06:25:03;;;;;;;5.50;3.50;;;;;;;;;;5089758;28;20479;-74
2023/06/13 06:27:31;;;;;;;3.97;3.57;;;;;;;;;;5092865;28;20526;-76
2023/06/13 06:29:59;;;;;;;5.00;3.73;;;;;;;;;;5091369;28;20489;-76
2023/06/13 06:32:26;;;;;;;4.13;3.20;;;;;;;;;;5079665;28;20458;-76
2023/06/13 06:34:55;;;;;;;6.30;3.60;;;;;;;;;;5086632;28;20507;-74
2023/06/13 06:37:24;;;;;;;6.77;2.90;;;;;;;;;;5088570;28;20832;-77
2023/06/13 06:39:51;;;;;;;7.93;3.47;;;;;;;;;;5105666;22;20483;-54
2023/06/13 06:42:18;;;;;;;4.93;4.43;;;;;;;;;;5115733;28;20944;-53
2023/06/13 06:44:46;;;;;;;6.67;3.83;;;;;;;;;;5119568;28;20475;-56
2023/06/13 06:47:13;;;;;;;8.60;3.60;;;;;;;;;;5109499;28;20457;-55
2023/06/13 06:49:40;;;;;;;6.63;3.73;;;;;;;;;;5119482;28;20500;-50
2023/06/13 06:52:09;;;;;;;8.43;4.10;;;;;;;;;;5111349;28;20520;-55
2023/06/13 06:54:36;;;;;;;7.10;3.23;;;;;;;;;;5121697;28;20444;-51
2023/06/13 06:57:03;;;;;;;5.63;3.60;;;;;;;;;;5128437;28;20461;-51
2023/06/13 06:59:30;;;;;;;8.73;4.03;;;;;;;;;;5124136;28;20444;-55
2023/06/13 07:01:58;;;;;;;3.80;3.40;;;;;;;;;;5108930;28;20442;-57
2023/06/13 07:04:25;;;;;;;6.03;3.60;;;;;;;;;;5106949;28;20501;-57
2023/06/13 07:06:52;;;;;;;3.70;3.30;;;;;;;;;;5111980;28;20910;-55
2023/06/13 07:09:21;;;;;;;6.03;3.37;;;21.40;74.30;;;;;;5116269;28;20567;-55
2023/06/13 07:11:48;;;;;;;4.53;2.97;;;;;;;;;;5124232;28;20443;-58
2023/06/13 07:14:15;;;;;;;4.20;3.53;;;;;;;;;;5131140;28;20439;-56
2023/06/13 07:16:42;;;;;;;6.30;4.07;;;;;;;;;;5129133;28;20449;-56
2023/06/13 07:19:10;;;;;;;7.57;4.13;;;22.40;72.90;;;;;;5117733;28;20466;-55
2023/06/13 07:21:37;;;;;;;5.60;3.50;;;;;;;;;;5121986;28;20465;-54
2023/06/13 07:24:05;;;;;;;5.80;4.33;;;;;;;;;;5118000;28;20524;-56
2023/06/13 07:26:33;;;;;;;4.93;3.77;;;23.40;70.20;;;;;;5109152;28;20849;-51
2023/06/13 07:29:00;;;;;;;7.00;4.43;;;;;;;;;;5126826;28;20461;-51
2023/06/13 07:31:27;;;;;;;5.47;3.57;;;;;;;;;;5130357;28;20441;-49
2023/06/13 07:33:55;;;;;;;8.70;4.53;;;;;;;;;;5123459;28;20468;-57
2023/06/13 07:36:22;;;;;;;5.03;3.77;;;;;;;;;;5115846;28;20456;-61
2023/06/13 07:38:49;;;;;;;5.53;4.03;;;;;;;;;;5110650;28;20457;-60
2023/06/13 07:41:16;;;;;;;4.77;4.10;;;;;;;;;;5126625;28;20443;-61
2023/06/13 07:43:45;;;;;;;6.30;4.17;;;;;;;;;;5120896;28;20516;-61
2023/06/13 07:46:12;;;;;;;4.73;4.10;;;;;;;;;;5116238;28;20514;-63
2023/06/13 07:48:39;;;;;;;14.83;7.03;;;;;;;;;;5124663;28;20480;-62
2023/06/13 07:51:06;;;;;;;12.03;4.70;;;;;;;;;;5114933;28;20539;-61
2023/06/13 07:53:33;;;;;;;7.33;4.00;;;;;;;;;;5112235;28;20465;-61
2023/06/13 07:56:01;;;;;;;5.40;3.67;;;;;;;;;;5123388;28;20475;-60
2023/06/13 07:58:28;;;;;;;4.07;3.67;;;;;;;;;;5131093;28;20456;-62
2023/06/13 08:00:56;;;;;;;7.03;4.03;;;28.60;57.80;;;;;;5125383;28;20437;-62
2023/06/13 08:03:24;;;;;;;8.53;4.40;;;;;;;;;;5117118;28;20477;-59
2023/06/13 08:05:51;;;;;;;5.20;4.00;;;;;;;;;;5123144;28;20453;-61
2023/06/13 08:08:18;;;;;;;14.00;5.87;;;;;;;;;;5107694;28;20487;-63
2023/06/13 08:10:45;;;;;;;5.10;4.37;;;;;;;;;;5121793;28;20432;-61
2023/06/13 08:13:14;;;;;;;5.50;3.40;;;;;;;;;;5120718;28;20437;-61
2023/06/13 08:15:41;;;;;;;5.70;3.47;;;;;;;;;;5124756;28;20417;-61
2023/06/13 08:18:09;;;;;;;4.10;3.27;;;29.40;56.60;;;;;;5121846;28;20452;-61
2023/06/13 08:20:37;;;;;;;4.77;3.10;;;;;;;;;;5127825;28;20471;-59
2023/06/13 08:23:04;;;;;;;5.53;3.60;;;;;;;;;;5118464;28;20461;-62
2023/06/13 08:25:31;;;;;;;5.13;3.80;;;;;;;;;;5118603;28;20847;-61
2023/06/13 08:27:59;;;;;;;3.63;3.30;;;;;;;;;;5109569;28;20449;-62
2023/06/13 08:30:26;;;;;;;4.80;3.80;;;;;;;;;;5115096;28;20533;-60
2023/06/13 08:32:54;;;;;;;6.73;3.70;;;;;;;;;;5122251;28;20511;-61
2023/06/13 08:35:22;;;;;;;7.10;3.73;;;31.80;52.30;;;;;;5105831;28;20536;-61
2023/06/13 08:37:50;;;;;;;4.37;3.17;;;;;;;;;;5109495;28;20460;-60
2023/06/13 08:40:19;;;;;;;6.43;3.50;;;;;;;;;;5109759;28;20470;-59
2023/06/13 08:42:46;;;;;;;5.47;3.20;;;;;;;;;;5128470;28;20480;-61
2023/06/13 08:45:14;;;;;;;5.90;3.67;;;;;;;;;;5124975;28;20444;-62
2023/06/13 08:47:46;;;;;;;3.73;3.37;;;30.00;54.60;;;;;;5115816;28;20445;-62
2023/06/13 08:50:14;;;;;;;6.20;3.20;;;;;;;;;;5116235;28;20488;-60
2023/06/13 08:52:45;;;;;;;7.50;4.60;;;30.90;54.00;;;;;;5121413;28;20436;-62
2023/06/13 08:55:13;;;;;;;4.93;3.30;;;;;;;;;;5117596;28;20433;-62
2023/06/13 08:57:41;;;;;;;5.40;3.80;;;;;;;;;;5129700;28;20441;-62
2023/06/13 09:00:10;;;;;;;3.03;2.83;;;31.70;52.20;;;;;;5119445;28;20437;-63
2023/06/13 09:02:38;;;;;;;6.67;3.60;;;;;;;;;;5119687;28;21153;-63
2023/06/13 09:05:05;;;;;;;3.43;3.13;;;;;;;;;;5131194;28;20433;-61
2023/06/13 09:07:33;;;;;;;8.30;4.07;;;33.30;49.90;;;;;;5115360;28;20926;-61
2023/06/13 09:10:01;;;;;;;5.10;4.60;;;;;;;;;;5105205;28;20453;-62
2023/06/13 09:12:29;;;;;;;4.07;3.67;;;;;;;;;;5118483;28;20441;-60
2023/06/13 09:14:56;;;;;;;4.17;3.80;;;;;;;;;;5118726;28;20555;-60
2023/06/13 09:17:23;;;;;;;4.83;3.27;;;;;;;;;;5112615;28;20476;-60
2023/06/13 09:19:50;;;;;;;4.13;3.60;;;;;;;;;;5106453;28;20472;-60
2023/06/13 09:22:18;;;;;;;6.30;3.07;;;33.60;49.30;;;;;;5099591;28;20430;-56
2023/06/13 09:24:46;;;;;;;3.50;3.07;;;33.30;50.20;;;;;;5100587;28;20942;-60
2023/06/13 09:27:15;;;;;;;4.87;3.60;;;32.90;50.90;;;;;;5104882;28;20469;-60
2023/06/13 09:29:42;;;;;;;7.33;4.70;;;;;;;;;;5099400;28;20445;-60
2023/06/13 09:32:10;;;;;;;3.43;3.13;;;;;;;;;;5108671;28;20566;-58
2023/06/13 09:34:38;;;;;;;14.00;3.07;;;;;;;;;;5104459;28;20480;-60
2023/06/13 09:37:07;;;;;;;3.23;2.93;;;32.00;50.60;;;;;;5101988;28;20446;-60
2023/06/13 09:39:35;;;;;;;5.80;3.70;;;;;;;;;;5105044;28;20492;-59
2023/06/13 09:42:05;;;;;;;3.70;3.07;;;32.30;48.20;;;;;;5109870;28;20433;-60
2023/06/13 09:44:34;;;;;;;3.17;2.80;;;31.50;48.10;;;;;;5110683;28;21035;-58
2023/06/13 09:47:02;;;;;;;3.10;2.77;;;;;;;;;;5111296;28;20450;-57
2023/06/13 09:49:32;;;;;;;4.70;2.97;;;;;;;;;;5126231;28;20452;-59
2023/06/13 09:51:59;;;;;;;4.67;3.10;;;;;;;;;;5131005;28;20496;-61
2023/06/13 09:54:29;;;;;;;6.20;2.93;;;32.30;46.60;;;;;;5121247;28;20434;-59
2023/06/13 09:56:57;;;;;;;6.73;4.80;;;32.20;46.40;;;;;;5112027;28;20437;-55
2023/06/13 09:59:24;;;;;;;6.97;3.77;;;;;;;;;;5110955;28;20500;-59
2023/06/13 10:01:53;;;;;;;3.40;3.10;;;32.40;48.10;;;;;;5132167;28;20456;-60
2023/06/13 10:04:21;;;;;;;6.47;3.27;;;;;;;;;;5131891;28;20465;-61
2023/06/13 10:06:48;;;;;;;8.73;2.30;;;;;;;;;;5133830;28;20548;-60
2023/06/13 10:09:15;;;;;;;4.30;3.30;;;;;;;;;;5133202;28;20461;-60
2023/06/13 10:11:51;;;;;;;6.33;2.80;;;31.60;47.00;;;;;;5129935;28;20483;-61
2023/06/13 10:14:22;;;;;;;6.30;3.10;;;31.30;48.00;;;;;;5131417;28;20478;-60
2023/06/13 10:16:57;;;;;;;5.17;3.00;;;30.80;48.10;;;;;;5129555;28;20532;-61
2023/06/13 10:19:25;;;;;;;6.97;3.80;;;31.20;47.20;;;;;;5133262;28;20467;-56
2023/06/13 10:21:53;;;;;;;3.13;2.40;;;31.40;47.00;;;;;;5135406;28;20444;-60
2023/06/13 10:24:22;;;;;;;3.47;2.80;;;31.50;47.10;;;;;;5136135;28;20472;-61
2023/06/13 10:26:56;;;;;;;2.80;2.60;;;31.80;47.50;;;;;;5137183;28;20452;-61
2023/06/13 10:29:47;;;;;;;4.47;3.20;;;31.90;42.10;;;;;;5118818;28;20481;-60
2023/06/13 10:32:31;;;;;;;12.50;3.03;;;31.60;47.70;;;;;;5112730;28;20926;-61
2023/06/13 10:35:45;;;;;;;3.63;3.07;;;30.70;43.30;;;;;;5112906;28;20541;-59
2023/06/13 10:39:04;;;;;;;3.67;2.60;;;29.90;44.40;;;;;;5013326;28;20521;-59
2023/06/13 10:41:47;;;;;;;2.53;2.30;;;29.10;51.20;;;;;;4987504;28;20465;-61
2023/06/13 10:44:17;;;;;;;4.40;2.80;;;;;;;;;;5106667;28;20436;-60
2023/06/13 10:46:47;;;;;;;3.30;2.90;;;28.00;52.10;;;;;;5138235;28;20449;-58
2023/06/13 10:49:16;;;;;;;3.40;2.40;;;27.70;52.80;;;;;;5138021;28;20436;-60
2023/06/13 10:51:44;;;;;;;6.97;2.10;;;;;;;;;;5137887;28;20417;-60
2023/06/13 10:54:12;;;;;;;8.70;3.07;;;27.00;53.50;;;;;;5138547;28;20465;-58
2023/06/13 10:56:42;;;;;;;5.13;2.93;;;26.60;51.00;;;;;;5137657;28;20514;-57
2023/06/13 10:59:11;;;;;;;2.30;2.10;;;26.50;53.90;;;;;;5138602;28;20448;-57
2023/06/13 11:01:39;;;;;;;3.77;3.30;;;;;;;;;;5117540;28;20451;-61
2023/06/13 11:04:07;;;;;;;5.63;3.20;;;28.20;56.20;;;;;;5122278;28;20479;-60
2023/06/13 11:06:36;;;;;;;5.17;3.00;;;26.10;54.90;;;;;;5124009;28;20469;-62
2023/06/13 11:09:14;;;;;;;3.47;2.70;;;26.00;49.90;;;;;;5124242;28;20437;-59
2023/06/13 11:11:45;;;;;;;5.20;4.00;;;25.90;55.70;;;;;;5136349;28;20424;-58
2023/06/13 11:14:12;;;;;;;5.40;3.03;;;;;;;;;;5138237;28;20437;-58
2023/06/13 11:16:43;;;;;;;3.10;2.63;;;25.90;56.30;;;;;;5135337;28;20444;-60
2023/06/13 11:19:14;;;;;;;2.83;2.50;;;25.90;56.30;;;;;;5138079;28;20472;-60
2023/06/13 11:21:46;;;;;;;3.73;2.90;;;25.80;56.60;;;;;;5126815;28;20439;-60
2023/06/13 11:24:15;;;;;;;5.93;3.33;;;26.60;57.30;;;;;;5132799;28;20417;-59
2023/06/13 11:26:43;;;;;;;3.80;2.47;;;26.00;57.00;;;;;;5137896;28;20434;-59
2023/06/13 11:29:11;;;;;;;3.07;2.70;;;;;;;;;;5136973;28;20428;-62
2023/06/13 11:31:40;;;;;;;4.63;2.20;;;26.20;57.20;;;;;;5135293;28;20480;-60
2023/06/13 11:34:10;;;;;;;4.20;3.80;;;26.40;55.60;;;;;;5123371;28;20436;-60
2023/06/13 11:36:42;;;;;;;4.10;2.63;;;26.50;57.30;;;;;;5137165;28;20452;-61
2023/06/13 11:39:12;;;;;;;2.97;2.33;;;26.30;57.30;;;;;;5121275;28;20443;-60
2023/06/13 11:41:40;;;;;;;6.23;2.80;;;;;;;;;;5116782;28;20821;-62
2023/06/13 11:44:07;;;;;;;3.27;2.40;;;;;;;;;;5135343;28;20539;-57
2023/06/13 11:46:35;;;;;;;3.67;2.47;;;;;;;;;;5116136;28;20584;-59
2023/06/13 11:49:02;;;;;;;15.20;3.37;;;;;;;;;;5117376;28;20720;-60
2023/06/13 11:51:30;;;;;;;4.50;1.90;;;27.10;53.60;;;;;;5129106;28;20509;-61
2023/06/13 11:53:59;;;;;;;4.40;2.83;;;27.20;53.40;;;;;;5113614;28;20465;-60
2023/06/13 11:56:29;;;;;;;2.90;2.43;;;27.30;52.80;;;;;;5096401;28;20523;-62
2023/06/13 11:58:57;;;;;;;5.90;2.80;;;27.30;52.40;;;;;;5096644;28;20970;-59
2023/06/13 12:01:26;;;;;;;3.17;2.60;;;27.40;51.90;;;;;;5102630;28;20497;-61
2023/06/13 12:03:53;;;;;;;6.93;2.87;;;;;;;;;;5104074;28;20460;-61
2023/06/13 12:06:20;;;;;;;6.50;2.87;;;;;;;;;;5112346;28;20457;-59
2023/06/13 12:08:48;;;;;;;4.37;2.40;;;;;;;;;;5099260;28;20497;-63
2023/06/13 12:11:17;;;;;;;3.00;2.70;;;26.80;51.80;;;;;;5108174;28;20492;-60
2023/06/13 12:13:55;;;;;;;5.00;3.97;;;26.70;54.30;;;;;;5108266;28;20441;-60
2023/06/13 12:16:26;;;;;;;5.30;2.97;;;26.80;47.80;;;;;;5114830;28;20451;-59
2023/06/13 12:18:53;;;;;;;4.87;3.00;;;;;;;;;;5121251;28;20508;-58
2023/06/13 12:21:21;;;;;;;4.10;2.43;;;;;;;;;;5136798;28;20500;-60
2023/06/13 12:23:48;;;;;;;2.73;2.30;;;;;;;;;;5135937;28;20441;-60
2023/06/13 12:26:17;;;;;;;5.10;2.67;;;;;;;;;;5136089;28;20437;-58
2023/06/13 12:28:47;;;;;;;5.53;3.60;;;;;;;;;;5134330;28;20524;-60
2023/06/13 12:31:15;;;;;;;5.20;3.00;;;26.60;53.30;;;;;;5134840;28;20441;-61
2023/06/13 12:33:44;;;;;;;3.07;2.33;;;26.80;53.00;;;;;;5122334;28;20500;-62
2023/06/13 12:36:11;;;;;;;3.33;2.20;;;;;;;;;;5134009;28;20506;-58
2023/06/13 12:38:44;;;;;;;3.27;2.80;;;26.70;44.90;;;;;;5134878;28;20440;-62
2023/06/13 12:41:15;;;;;;;3.37;3.07;;;26.80;45.20;;;;;;5133234;28;20480;-61
2023/06/13 12:43:45;;;;;;;2.43;2.17;;;25.80;44.40;;;;;;5135748;28;20456;-60
2023/06/13 12:46:13;;;;;;;2.90;2.47;;;26.40;44.30;;;;;;5134320;28;20465;-62
2023/06/13 12:48:44;;;;;;;4.30;2.90;;;26.40;83.60;;;;;;5121160;28;20442;-64
2023/06/13 12:51:27;;;;;;;8.23;2.73;;;26.10;44.70;;;;;;5114219;28;20882;-62
2023/06/13 12:54:11;;;;;;;2.77;2.33;;;26.10;44.80;;;;;;5112821;28;20902;-63
2023/06/13 12:56:38;;;;;;;6.97;2.57;;;;;;;;;;5112430;28;20468;-63
2023/06/13 12:59:07;;;;;;;2.33;1.97;;;26.10;44.30;;;;;;5113900;28;20526;-61
2023/06/13 13:01:34;;;;;;;4.90;2.80;;;26.40;73.50;;;;;;5112230;28;21053;-63
2023/06/13 13:04:03;;;;;;;3.03;2.50;;;26.60;73.80;;;;;;5109974;28;20476;-63
2023/06/13 13:06:31;;;;;;;3.57;3.10;;;;;;;;;;5114018;28;20421;-62
2023/06/13 13:08:58;;;;;;;3.20;2.90;;;;;;;;;;5115032;28;20424;-60
2023/06/13 13:11:26;;;;;;;2.33;1.83;;;;;;;;;;5112623;28;20469;-63
2023/06/13 13:13:53;;;;;;;3.40;2.97;;;26.90;51.00;;;;;;5103321;28;20529;-62
2023/06/13 13:16:21;;;;;;;7.20;2.03;;;;;;;;;;5113298;28;20460;-62
2023/06/13 13:18:48;;;;;;;3.00;2.57;;;;;;;;;;5113537;28;20492;-62
2023/06/13 13:21:17;;;;;;;4.10;2.53;;;25.90;45.00;;;;;;5104905;28;20477;-61
2023/06/13 13:23:44;;;;;;;4.07;2.90;;;;;;;;;;5109513;28;20470;-60
2023/06/13 13:26:11;;;;;;;2.77;2.47;;;25.80;75.10;;;;;;5113070;28;20445;-61
2023/06/13 13:28:38;;;;;;;5.80;3.07;;;;;;;;;;5113629;28;20449;-61
2023/06/13 13:31:05;;;;;;;7.70;4.50;;;;;;;;;;5117616;28;20444;-59
2023/06/13 13:33:32;;;;;;;4.23;2.53;;;;;;;;;;5132690;28;20441;-57
2023/06/13 13:35:59;;;;;;;2.97;2.33;;;26.40;83.90;;;;;;5131489;28;20518;-61
2023/06/13 13:38:27;;;;;;;3.40;2.50;;;26.90;84.10;;;;;;5133234;28;20479;-60
2023/06/13 13:40:54;;;;;;;3.37;3.07;;;;;;;;;;5132602;28;20510;-60
2023/06/13 13:43:21;;;;;;;4.37;2.80;;;;;;;;;;5134504;28;20468;-59
2023/06/13 13:45:48;;;;;;;5.30;3.40;;;26.40;84.90;;;;;;5119758;28;20444;-61
2023/06/13 13:48:16;;;;;;;14.43;6.87;;;;;;;;;;5112848;28;20454;-61
2023/06/13 13:50:43;;;;;;;6.30;3.50;;;;;;;;;;5116485;28;20456;-60
2023/06/13 13:53:14;;;;;;;7.33;3.57;;;;;;;;;;5128699;28;20440;-63
2023/06/13 13:55:42;;;;;;;3.00;2.47;;;;;;;;;;5137495;28;20476;-60
2023/06/13 13:58:10;;;;;;;3.93;2.73;;;;;;;;;;5138383;28;20444;-59
2023/06/13 14:00:37;;;;;;;6.00;2.57;;;;;;;;;;5136696;28;20516;-60
2023/06/13 14:03:05;;;;;;;3.70;3.00;;;25.30;52.40;;;;;;5137331;28;20456;-60
2023/06/13 14:05:32;;;;;;;3.57;2.77;;;;;;;;;;5129811;28;20433;-62
2023/06/13 14:08:02;;;;;;;4.90;2.57;;;;;;;;;;5116199;28;20481;-58